sensor_id;sensor_type;location;lat;lon;timestamp;pressure;altitude;pressure_sealevel;temperature;humidity
75045;BME280;63614;56.026;35.960;2023-04-07T00:00:53;100136.00;;;2.49;54.78
75045;BME280;63614;56.026;35.960;2023-04-07T00:03:19;100138.00;;;2.45;55.51
75045;BME280;63614;56.026;35.960;2023-04-07T00:05:45;100141.63;;;2.43;55.02
75045;BME280;63614;56.026;35.960;2023-04-07T00:08:10;100136.84;;;2.38;55.40
75045;BME280;63614;56.026;35.960;2023-04-07T00:10:36;100137.19;;;2.33;55.88
75045;BME280;63614;56.026;35.960;2023-04-07T00:13:02;100133.19;;;2.29;55.85
75045;BME280;63614;56.026;35.960;2023-04-07T00:15:28;100130.97;;;2.25;56.16
75045;BME280;63614;56.026;35.960;2023-04-07T00:17:53;100133.66;;;2.23;55.91
75045;BME280;63614;56.026;35.960;2023-04-07T00:20:19;100137.06;;;2.24;56.10
75045;BME280;63614;56.026;35.960;2023-04-07T00:22:45;100134.50;;;2.24;56.35
75045;BME280;63614;56.026;35.960;2023-04-07T00:25:11;100131.19;;;2.22;55.88
75045;BME280;63614;56.026;35.960;2023-04-07T00:27:37;100139.25;;;2.17;56.59
75045;BME280;63614;56.026;35.960;2023-04-07T00:30:04;100140.19;;;2.16;56.22
75045;BME280;63614;56.026;35.960;2023-04-07T00:32:29;100145.22;;;2.17;56.22
75045;BME280;63614;56.026;35.960;2023-04-07T00:34:55;100139.38;;;2.15;56.57
75045;BME280;63614;56.026;35.960;2023-04-07T00:37:21;100132.72;;;2.13;56.52
75045;BME280;63614;56.026;35.960;2023-04-07T00:39:47;100134.47;;;2.12;56.29
75045;BME280;63614;56.026;35.960;2023-04-07T00:42:12;100131.19;;;2.10;56.37
75045;BME280;63614;56.026;35.960;2023-04-07T00:44:38;100130.38;;;2.10;56.50
75045;BME280;63614;56.026;35.960;2023-04-07T00:47:04;100124.53;;;1.96;56.96
75045;BME280;63614;56.026;35.960;2023-04-07T00:49:30;100121.38;;;2.04;56.76
75045;BME280;63614;56.026;35.960;2023-04-07T00:51:57;100117.31;;;2.02;56.75
75045;BME280;63614;56.026;35.960;2023-04-07T00:54:23;100129.44;;;1.99;57.32
75045;BME280;63614;56.026;35.960;2023-04-07T00:56:50;100122.88;;;1.95;57.53
75045;BME280;63614;56.026;35.960;2023-04-07T00:59:16;100120.53;;;1.92;57.61
75045;BME280;63614;56.026;35.960;2023-04-07T01:02:07;100125.31;;;1.86;57.75
75045;BME280;63614;56.026;35.960;2023-04-07T01:07:14;100134.28;;;1.80;58.34
75045;BME280;63614;56.026;35.960;2023-04-07T01:09:57;100131.94;;;1.77;58.51
75045;BME280;63614;56.026;35.960;2023-04-07T01:12:37;100130.41;;;1.74;58.63
75045;BME280;63614;56.026;35.960;2023-04-07T01:15:10;100136.25;;;1.76;58.50
75045;BME280;63614;56.026;35.960;2023-04-07T01:17:44;100138.34;;;1.71;58.57
75045;BME280;63614;56.026;35.960;2023-04-07T01:20:15;100134.25;;;1.69;58.40
75045;BME280;63614;56.026;35.960;2023-04-07T01:22:46;100137.97;;;1.65;58.42
75045;BME280;63614;56.026;35.960;2023-04-07T01:25:22;100133.06;;;1.61;58.49
75045;BME280;63614;56.026;35.960;2023-04-07T01:30:31;100139.22;;;1.59;58.64
75045;BME280;63614;56.026;35.960;2023-04-07T01:32:59;100136.41;;;1.51;59.15
75045;BME280;63614;56.026;35.960;2023-04-07T01:35:28;100131.25;;;1.51;58.98
75045;BME280;63614;56.026;35.960;2023-04-07T01:37:55;100132.06;;;1.51;59.26
75045;BME280;63614;56.026;35.960;2023-04-07T01:40:23;100139.66;;;1.53;59.47
75045;BME280;63614;56.026;35.960;2023-04-07T01:42:50;100143.50;;;1.47;59.50
75045;BME280;63614;56.026;35.960;2023-04-07T01:45:17;100141.03;;;1.45;59.80
75045;BME280;63614;56.026;35.960;2023-04-07T01:47:44;100139.41;;;1.44;59.96
75045;BME280;63614;56.026;35.960;2023-04-07T01:50:10;100136.56;;;1.36;60.54
75045;BME280;63614;56.026;35.960;2023-04-07T01:52:38;100134.81;;;1.37;60.34
75045;BME280;63614;56.026;35.960;2023-04-07T01:55:05;100139.94;;;1.37;59.84
75045;BME280;63614;56.026;35.960;2023-04-07T01:57:34;100142.41;;;1.38;60.23
75045;BME280;63614;56.026;35.960;2023-04-07T02:00:08;100148.56;;;1.36;60.49
75045;BME280;63614;56.026;35.960;2023-04-07T02:02:48;100138.53;;;1.33;60.34
75045;BME280;63614;56.026;35.960;2023-04-07T02:05:18;100140.59;;;1.27;60.57
75045;BME280;63614;56.026;35.960;2023-04-07T02:08:08;100141.63;;;1.25;60.34
75045;BME280;63614;56.026;35.960;2023-04-07T02:10:37;100141.75;;;1.23;60.72
75045;BME280;63614;56.026;35.960;2023-04-07T02:13:09;100146.72;;;1.14;61.17
75045;BME280;63614;56.026;35.960;2023-04-07T02:15:38;100143.31;;;1.13;61.36
75045;BME280;63614;56.026;35.960;2023-04-07T02:18:06;100139.56;;;1.06;61.71
75045;BME280;63614;56.026;35.960;2023-04-07T02:20:37;100141.09;;;0.96;62.16
75045;BME280;63614;56.026;35.960;2023-04-07T02:23:07;100138.06;;;0.90;62.51
75045;BME280;63614;56.026;35.960;2023-04-07T02:25:34;100144.31;;;0.86;62.46
75045;BME280;63614;56.026;35.960;2023-04-07T02:28:03;100146.69;;;0.89;63.00
75045;BME280;63614;56.026;35.960;2023-04-07T02:30:30;100146.88;;;0.86;62.76
75045;BME280;63614;56.026;35.960;2023-04-07T02:32:56;100147.22;;;0.82;62.66
75045;BME280;63614;56.026;35.960;2023-04-07T02:35:22;100147.31;;;0.80;62.95
75045;BME280;63614;56.026;35.960;2023-04-07T02:37:48;100145.44;;;0.82;62.95
75045;BME280;63614;56.026;35.960;2023-04-07T02:40:14;100149.66;;;0.83;63.03
75045;BME280;63614;56.026;35.960;2023-04-07T02:42:40;100145.56;;;0.81;62.65
75045;BME280;63614;56.026;35.960;2023-04-07T02:45:07;100149.56;;;0.85;62.87
75045;BME280;63614;56.026;35.960;2023-04-07T02:47:34;100150.38;;;0.85;63.17
75045;BME280;63614;56.026;35.960;2023-04-07T02:50:02;100147.69;;;0.87;63.36
75045;BME280;63614;56.026;35.960;2023-04-07T02:52:28;100144.53;;;0.83;63.32
75045;BME280;63614;56.026;35.960;2023-04-07T02:54:54;100141.25;;;0.81;63.16
75045;BME280;63614;56.026;35.960;2023-04-07T02:57:24;100147.22;;;0.82;63.54
75045;BME280;63614;56.026;35.960;2023-04-07T02:59:53;100151.91;;;0.88;62.98
75045;BME280;63614;56.026;35.960;2023-04-07T03:02:23;100146.81;;;1.12;62.00
75045;BME280;63614;56.026;35.960;2023-04-07T03:04:52;100150.25;;;1.48;61.44
75045;BME280;63614;56.026;35.960;2023-04-07T03:07:20;100150.63;;;1.90;60.02
75045;BME280;63614;56.026;35.960;2023-04-07T03:09:48;100152.22;;;2.15;58.39
75045;BME280;63614;56.026;35.960;2023-04-07T03:12:16;100153.28;;;2.47;57.44
75045;BME280;63614;56.026;35.960;2023-04-07T03:14:42;100147.31;;;2.80;56.05
75045;BME280;63614;56.026;35.960;2023-04-07T03:17:09;100153.22;;;3.15;55.03
75045;BME280;63614;56.026;35.960;2023-04-07T03:19:35;100146.56;;;3.44;54.63
75045;BME280;63614;56.026;35.960;2023-04-07T03:22:01;100148.56;;;3.73;53.62
75045;BME280;63614;56.026;35.960;2023-04-07T03:24:32;100150.47;;;4.13;52.95
75045;BME280;63614;56.026;35.960;2023-04-07T03:26:58;100144.44;;;4.55;51.67
75045;BME280;63614;56.026;35.960;2023-04-07T03:29:36;100151.34;;;4.95;50.17
75045;BME280;63614;56.026;35.960;2023-04-07T03:32:04;100148.41;;;5.29;48.69
75045;BME280;63614;56.026;35.960;2023-04-07T03:34:31;100156.97;;;5.69;47.78
75045;BME280;63614;56.026;35.960;2023-04-07T03:36:57;100161.84;;;6.01;46.88
75045;BME280;63614;56.026;35.960;2023-04-07T03:39:24;100143.72;;;6.21;46.46
75045;BME280;63614;56.026;35.960;2023-04-07T03:41:56;100149.56;;;6.60;45.71
75045;BME280;63614;56.026;35.960;2023-04-07T03:44:22;100156.56;;;7.05;44.83
75045;BME280;63614;56.026;35.960;2023-04-07T03:46:49;100160.75;;;7.34;44.55
75045;BME280;63614;56.026;35.960;2023-04-07T03:49:16;100153.84;;;7.61;43.63
75045;BME280;63614;56.026;35.960;2023-04-07T03:51:42;100159.88;;;7.88;42.52
75045;BME280;63614;56.026;35.960;2023-04-07T03:54:13;100156.22;;;8.25;41.61
75045;BME280;63614;56.026;35.960;2023-04-07T03:56:41;100157.84;;;8.86;40.53
75045;BME280;63614;56.026;35.960;2023-04-07T03:59:07;100161.84;;;9.32;39.38
75045;BME280;63614;56.026;35.960;2023-04-07T04:01:39;100160.41;;;9.37;38.62
75045;BME280;63614;56.026;35.960;2023-04-07T04:04:12;100166.59;;;9.69;38.46
75045;BME280;63614;56.026;35.960;2023-04-07T04:06:37;100164.78;;;9.78;37.68
75045;BME280;63614;56.026;35.960;2023-04-07T04:09:32;100156.16;;;9.94;37.26
75045;BME280;63614;56.026;35.960;2023-04-07T04:11:58;100154.69;;;10.08;37.50
75045;BME280;63614;56.026;35.960;2023-04-07T04:14:24;100170.25;;;10.49;36.38
75045;BME280;63614;56.026;35.960;2023-04-07T04:16:55;100159.22;;;10.78;35.53
75045;BME280;63614;56.026;35.960;2023-04-07T04:19:28;100175.91;;;10.92;35.31
75045;BME280;63614;56.026;35.960;2023-04-07T04:21:56;100173.81;;;10.87;35.10
75045;BME280;63614;56.026;35.960;2023-04-07T04:24:22;100177.56;;;10.85;35.33
75045;BME280;63614;56.026;35.960;2023-04-07T04:26:48;100172.41;;;11.39;34.54
75045;BME280;63614;56.026;35.960;2023-04-07T04:29:14;100176.94;;;11.84;33.50
75045;BME280;63614;56.026;35.960;2023-04-07T04:31:41;100180.16;;;12.24;32.83
75045;BME280;63614;56.026;35.960;2023-04-07T04:34:08;100174.97;;;12.53;32.20
75045;BME280;63614;56.026;35.960;2023-04-07T04:36:35;100174.97;;;12.53;32.51
75045;BME280;63614;56.026;35.960;2023-04-07T04:39:04;100171.84;;;13.31;31.73
75045;BME280;63614;56.026;35.960;2023-04-07T04:41:30;100172.19;;;13.06;31.26
75045;BME280;63614;56.026;35.960;2023-04-07T04:43:57;100171.38;;;13.42;30.71
75045;BME280;63614;56.026;35.960;2023-04-07T04:46:25;100179.66;;;13.68;30.40
75045;BME280;63614;56.026;35.960;2023-04-07T04:48:51;100180.00;;;13.86;30.17
75045;BME280;63614;56.026;35.960;2023-04-07T04:51:19;100171.03;;;14.30;28.85
75045;BME280;63614;56.026;35.960;2023-04-07T04:53:49;100183.44;;;14.50;28.89
75045;BME280;63614;56.026;35.960;2023-04-07T04:56:16;100171.16;;;14.85;28.98
75045;BME280;63614;56.026;35.960;2023-04-07T04:58:45;100180.75;;;14.71;28.68
75045;BME280;63614;56.026;35.960;2023-04-07T05:01:15;100180.94;;;15.32;28.07
75045;BME280;63614;56.026;35.960;2023-04-07T05:03:47;100177.78;;;15.83;28.10
75045;BME280;63614;56.026;35.960;2023-04-07T05:06:19;100174.09;;;15.44;27.67
75045;BME280;63614;56.026;35.960;2023-04-07T05:08:48;100177.75;;;15.96;26.67
75045;BME280;63614;56.026;35.960;2023-04-07T05:11:16;100179.88;;;16.60;26.47
75045;BME280;63614;56.026;35.960;2023-04-07T05:13:45;100178.31;;;16.32;26.72
75045;BME280;63614;56.026;35.960;2023-04-07T05:16:10;100174.94;;;16.83;26.00
75045;BME280;63614;56.026;35.960;2023-04-07T05:18:36;100182.28;;;16.61;26.10
75045;BME280;63614;56.026;35.960;2023-04-07T05:21:03;100181.00;;;16.77;25.96
75045;BME280;63614;56.026;35.960;2023-04-07T05:23:30;100182.69;;;16.58;26.20
75045;BME280;63614;56.026;35.960;2023-04-07T05:25:56;100181.16;;;16.17;26.48
75045;BME280;63614;56.026;35.960;2023-04-07T05:28:22;100182.41;;;15.81;26.85
75045;BME280;63614;56.026;35.960;2023-04-07T05:30:50;100184.38;;;15.32;27.36
75045;BME280;63614;56.026;35.960;2023-04-07T05:33:18;100190.38;;;15.13;27.76
75045;BME280;63614;56.026;35.960;2023-04-07T05:35:48;100185.66;;;14.53;28.54
75045;BME280;63614;56.026;35.960;2023-04-07T05:38:14;100195.22;;;14.32;28.60
75045;BME280;63614;56.026;35.960;2023-04-07T05:40:41;100188.81;;;13.20;30.70
75045;BME280;63614;56.026;35.960;2023-04-07T05:43:10;100195.94;;;12.75;31.89
75045;BME280;63614;56.026;35.960;2023-04-07T05:45:37;100189.00;;;12.23;33.06
75045;BME280;63614;56.026;35.960;2023-04-07T05:48:04;100190.94;;;12.06;33.27
75045;BME280;63614;56.026;35.960;2023-04-07T05:50:37;100201.06;;;11.39;33.23
75045;BME280;63614;56.026;35.960;2023-04-07T05:53:07;100197.81;;;11.06;34.21
75045;BME280;63614;56.026;35.960;2023-04-07T05:55:33;100201.66;;;10.87;34.87
75045;BME280;63614;56.026;35.960;2023-04-07T05:57:59;100203.59;;;10.45;35.37
75045;BME280;63614;56.026;35.960;2023-04-07T06:00:28;100203.41;;;10.39;35.46
75045;BME280;63614;56.026;35.960;2023-04-07T06:03:02;100196.47;;;9.90;36.33
75045;BME280;63614;56.026;35.960;2023-04-07T06:05:33;100197.13;;;9.75;37.03
75045;BME280;63614;56.026;35.960;2023-04-07T06:08:00;100198.72;;;9.52;37.94
75045;BME280;63614;56.026;35.960;2023-04-07T06:10:28;100196.28;;;9.50;37.88
75045;BME280;63614;56.026;35.960;2023-04-07T06:12:53;100194.81;;;9.48;38.21
75045;BME280;63614;56.026;35.960;2023-04-07T06:15:20;100193.19;;;9.47;38.72
75045;BME280;63614;56.026;35.960;2023-04-07T06:17:45;100191.72;;;9.36;38.09
75045;BME280;63614;56.026;35.960;2023-04-07T06:20:11;100198.31;;;9.14;38.55
75045;BME280;63614;56.026;35.960;2023-04-07T06:22:37;100193.38;;;8.94;38.79
75045;BME280;63614;56.026;35.960;2023-04-07T06:25:06;100197.69;;;8.77;39.25
75045;BME280;63614;56.026;35.960;2023-04-07T06:27:32;100199.34;;;8.86;39.05
75045;BME280;63614;56.026;35.960;2023-04-07T06:30:16;100199.88;;;8.98;39.72
75045;BME280;63614;56.026;35.960;2023-04-07T06:32:42;100194.06;;;9.04;38.31
75045;BME280;63614;56.026;35.960;2023-04-07T06:35:45;100193.56;;;9.01;39.12
75045;BME280;63614;56.026;35.960;2023-04-07T06:38:11;100185.13;;;8.99;38.01
75045;BME280;63614;56.026;35.960;2023-04-07T06:40:37;100196.44;;;8.89;38.13
75045;BME280;63614;56.026;35.960;2023-04-07T06:43:03;100200.66;;;8.82;38.53
75045;BME280;63614;56.026;35.960;2023-04-07T06:46:00;100201.50;;;8.99;37.50
75045;BME280;63614;56.026;35.960;2023-04-07T06:48:26;100203.91;;;8.93;37.97
75045;BME280;63614;56.026;35.960;2023-04-07T06:50:52;100199.41;;;9.03;38.28
75045;BME280;63614;56.026;35.960;2023-04-07T06:53:17;100194.41;;;9.09;38.42
75045;BME280;63614;56.026;35.960;2023-04-07T06:55:43;100194.44;;;9.18;37.84
75045;BME280;63614;56.026;35.960;2023-04-07T06:58:09;100195.38;;;9.08;37.82
75045;BME280;63614;56.026;35.960;2023-04-07T07:00:35;100198.78;;;9.17;37.86
75045;BME280;63614;56.026;35.960;2023-04-07T07:03:01;100206.28;;;9.20;37.32
75045;BME280;63614;56.026;35.960;2023-04-07T07:05:27;100203.66;;;9.20;36.83
75045;BME280;63614;56.026;35.960;2023-04-07T07:07:53;100197.88;;;9.35;37.62
75045;BME280;63614;56.026;35.960;2023-04-07T07:10:19;100197.38;;;9.31;37.25
75045;BME280;63614;56.026;35.960;2023-04-07T07:12:45;100202.72;;;9.21;36.76
75045;BME280;63614;56.026;35.960;2023-04-07T07:15:10;100203.19;;;9.17;36.52
75045;BME280;63614;56.026;35.960;2023-04-07T07:17:36;100203.50;;;9.14;38.20
75045;BME280;63614;56.026;35.960;2023-04-07T07:20:02;100204.84;;;9.26;37.73
75045;BME280;63614;56.026;35.960;2023-04-07T07:22:28;100206.72;;;9.07;36.20
75045;BME280;63614;56.026;35.960;2023-04-07T07:24:54;100207.50;;;9.00;36.18
75045;BME280;63614;56.026;35.960;2023-04-07T07:27:20;100207.41;;;9.09;36.99
75045;BME280;63614;56.026;35.960;2023-04-07T07:29:46;100209.53;;;9.22;36.32
75045;BME280;63614;56.026;35.960;2023-04-07T07:32:12;100203.66;;;9.12;36.67
75045;BME280;63614;56.026;35.960;2023-04-07T07:34:37;100210.97;;;9.17;37.53
75045;BME280;63614;56.026;35.960;2023-04-07T07:37:03;100212.97;;;9.31;36.53
75045;BME280;63614;56.026;35.960;2023-04-07T07:39:29;100198.22;;;9.40;36.85
75045;BME280;63614;56.026;35.960;2023-04-07T07:41:55;100213.97;;;9.47;36.05
75045;BME280;63614;56.026;35.960;2023-04-07T07:44:20;100207.16;;;9.54;37.49
75045;BME280;63614;56.026;35.960;2023-04-07T07:46:48;100232.75;;;9.32;37.32
75045;BME280;63614;56.026;35.960;2023-04-07T07:49:14;100206.34;;;9.45;37.38
75045;BME280;63614;56.026;35.960;2023-04-07T07:51:39;100203.06;;;9.35;36.08
75045;BME280;63614;56.026;35.960;2023-04-07T07:54:05;100207.41;;;9.18;36.09
75045;BME280;63614;56.026;35.960;2023-04-07T07:56:31;100201.38;;;9.09;36.69
75045;BME280;63614;56.026;35.960;2023-04-07T07:58:57;100221.88;;;9.29;37.03
75045;BME280;63614;56.026;35.960;2023-04-07T08:01:23;100200.28;;;9.28;36.67
75045;BME280;63614;56.026;35.960;2023-04-07T08:03:49;100211.69;;;9.43;35.81
75045;BME280;63614;56.026;35.960;2023-04-07T08:06:14;100194.16;;;9.37;36.40
75045;BME280;63614;56.026;35.960;2023-04-07T08:08:41;100190.94;;;9.68;36.81
75045;BME280;63614;56.026;35.960;2023-04-07T08:11:06;100190.13;;;9.68;36.07
75045;BME280;63614;56.026;35.960;2023-04-07T08:13:32;100199.06;;;9.81;35.91
75045;BME280;63614;56.026;35.960;2023-04-07T08:15:58;100206.34;;;9.70;35.38
75045;BME280;63614;56.026;35.960;2023-04-07T08:18:24;100197.13;;;9.75;36.00
75045;BME280;63614;56.026;35.960;2023-04-07T08:20:49;100190.75;;;9.53;36.12
75045;BME280;63614;56.026;35.960;2023-04-07T08:23:16;100194.63;;;9.41;35.54
75045;BME280;63614;56.026;35.960;2023-04-07T08:25:42;100192.72;;;9.76;35.79
75045;BME280;63614;56.026;35.960;2023-04-07T08:28:07;100185.41;;;9.79;35.31
75045;BME280;63614;56.026;35.960;2023-04-07T08:30:33;100196.44;;;9.65;34.96
75045;BME280;63614;56.026;35.960;2023-04-07T08:32:59;100191.13;;;9.83;35.04
75045;BME280;63614;56.026;35.960;2023-04-07T08:35:25;100186.25;;;9.80;36.05
75045;BME280;63614;56.026;35.960;2023-04-07T08:37:50;100199.53;;;9.93;36.23
75045;BME280;63614;56.026;35.960;2023-04-07T08:40:16;100189.31;;;10.00;35.43
75045;BME280;63614;56.026;35.960;2023-04-07T08:42:46;100183.78;;;10.20;35.43
75045;BME280;63614;56.026;35.960;2023-04-07T08:45:12;100198.41;;;10.12;34.84
75045;BME280;63614;56.026;35.960;2023-04-07T08:47:39;100193.00;;;10.39;34.55
75045;BME280;63614;56.026;35.960;2023-04-07T08:50:10;100180.16;;;10.45;34.15
75045;BME280;63614;56.026;35.960;2023-04-07T08:52:52;100193.50;;;10.17;35.42
75045;BME280;63614;56.026;35.960;2023-04-07T08:55:19;100191.03;;;10.49;34.96
75045;BME280;63614;56.026;35.960;2023-04-07T08:57:45;100182.59;;;10.39;34.40
75045;BME280;63614;56.026;35.960;2023-04-07T09:00:11;100172.34;;;10.29;34.02
75045;BME280;63614;56.026;35.960;2023-04-07T09:02:42;100181.78;;;10.46;34.93
75045;BME280;63614;56.026;35.960;2023-04-07T09:05:10;100168.38;;;10.74;33.67
75045;BME280;63614;56.026;35.960;2023-04-07T09:07:37;100168.91;;;10.61;33.02
75045;BME280;63614;56.026;35.960;2023-04-07T09:10:05;100173.06;;;10.79;32.72
75045;BME280;63614;56.026;35.960;2023-04-07T09:12:32;100168.22;;;10.67;33.17
75045;BME280;63614;56.026;35.960;2023-04-07T09:14:58;100179.81;;;10.57;33.20
75045;BME280;63614;56.026;35.960;2023-04-07T09:17:28;100169.94;;;10.44;33.24
75045;BME280;63614;56.026;35.960;2023-04-07T09:19:58;100163.00;;;10.76;33.06
75045;BME280;63614;56.026;35.960;2023-04-07T09:30:26;100166.81;;;10.96;32.25
75045;BME280;63614;56.026;35.960;2023-04-07T09:32:52;100172.00;;;10.57;33.18
75045;BME280;63614;56.026;35.960;2023-04-07T09:35:18;100171.81;;;10.66;32.98
75045;BME280;63614;56.026;35.960;2023-04-07T09:38:00;100187.72;;;10.71;32.96
75045;BME280;63614;56.026;35.960;2023-04-07T09:40:26;100175.84;;;10.77;32.99
75045;BME280;63614;56.026;35.960;2023-04-07T09:42:52;100174.25;;;10.68;33.93
75045;BME280;63614;56.026;35.960;2023-04-07T09:45:27;100170.75;;;10.84;33.72
75045;BME280;63614;56.026;35.960;2023-04-07T09:47:54;100170.13;;;10.73;34.44
75045;BME280;63614;56.026;35.960;2023-04-07T09:50:40;100167.41;;;10.67;35.43
75045;BME280;63614;56.026;35.960;2023-04-07T09:53:10;100161.47;;;10.42;35.21
75045;BME280;63614;56.026;35.960;2023-04-07T09:55:36;100172.19;;;10.30;35.09
75045;BME280;63614;56.026;35.960;2023-04-07T09:58:04;100176.56;;;10.46;34.79
75045;BME280;63614;56.026;35.960;2023-04-07T10:00:30;100182.09;;;10.51;34.57
75045;BME280;63614;56.026;35.960;2023-04-07T10:02:57;100170.34;;;10.64;35.48
75045;BME280;63614;56.026;35.960;2023-04-07T10:05:24;100170.97;;;10.74;33.65
75045;BME280;63614;56.026;35.960;2023-04-07T10:07:49;100158.00;;;10.58;32.74
75045;BME280;63614;56.026;35.960;2023-04-07T10:10:15;100156.38;;;10.65;33.26
75045;BME280;63614;56.026;35.960;2023-04-07T10:12:42;100173.41;;;10.76;34.35
75045;BME280;63614;56.026;35.960;2023-04-07T10:15:11;100175.34;;;10.82;34.60
75045;BME280;63614;56.026;35.960;2023-04-07T10:17:46;100165.31;;;10.62;34.46
75045;BME280;63614;56.026;35.960;2023-04-07T10:20:17;100163.00;;;10.76;33.90
75045;BME280;63614;56.026;35.960;2023-04-07T10:22:47;100159.16;;;10.95;33.05
75045;BME280;63614;56.026;35.960;2023-04-07T10:25:17;100163.00;;;10.76;32.84
75045;BME280;63614;56.026;35.960;2023-04-07T10:27:47;100157.91;;;10.82;32.99
75045;BME280;63614;56.026;35.960;2023-04-07T10:30:24;100159.13;;;11.03;32.49
75045;BME280;63614;56.026;35.960;2023-04-07T10:32:51;100150.50;;;11.25;32.24
75045;BME280;63614;56.026;35.960;2023-04-07T10:35:17;100150.41;;;11.19;32.69
75045;BME280;63614;56.026;35.960;2023-04-07T10:38:08;100159.13;;;11.03;32.33
75045;BME280;63614;56.026;35.960;2023-04-07T10:40:35;100161.78;;;10.86;32.56
75045;BME280;63614;56.026;35.960;2023-04-07T10:43:04;100177.16;;;11.04;32.96
75045;BME280;63614;56.026;35.960;2023-04-07T10:48:14;100154.59;;;11.20;32.31
75045;BME280;63614;56.026;35.960;2023-04-07T10:50:40;100158.22;;;11.42;32.74
75045;BME280;63614;56.026;35.960;2023-04-07T10:53:08;100152.72;;;11.14;31.62
75045;BME280;63614;56.026;35.960;2023-04-07T10:55:42;100151.53;;;11.16;32.23
75045;BME280;63614;56.026;35.960;2023-04-07T10:58:28;100146.97;;;11.18;31.77
75045;BME280;63614;56.026;35.960;2023-04-07T11:03:37;100159.97;;;11.26;31.05
75045;BME280;63614;56.026;35.960;2023-04-07T11:06:11;100156.34;;;11.27;32.08
75045;BME280;63614;56.026;35.960;2023-04-07T11:08:44;100153.56;;;11.06;31.99
75045;BME280;63614;56.026;35.960;2023-04-07T11:11:12;100151.38;;;11.18;31.56
75045;BME280;63614;56.026;35.960;2023-04-07T11:16:06;100152.91;;;11.04;31.55
75045;BME280;63614;56.026;35.960;2023-04-07T11:18:32;100142.59;;;11.19;32.30
75045;BME280;63614;56.026;35.960;2023-04-07T11:20:58;100149.16;;;11.06;32.01
75045;BME280;63614;56.026;35.960;2023-04-07T11:23:24;100146.84;;;11.12;32.17
75045;BME280;63614;56.026;35.960;2023-04-07T11:25:51;100149.47;;;11.35;31.00
75045;BME280;63614;56.026;35.960;2023-04-07T11:28:18;100149.59;;;11.41;31.09
75045;BME280;63614;56.026;35.960;2023-04-07T11:30:50;100157.75;;;11.38;31.58
75045;BME280;63614;56.026;35.960;2023-04-07T11:33:21;100147.91;;;11.25;31.66
75045;BME280;63614;56.026;35.960;2023-04-07T11:35:58;100150.91;;;11.37;31.33
75045;BME280;63614;56.026;35.960;2023-04-07T11:38:25;100146.22;;;11.33;31.09
75045;BME280;63614;56.026;35.960;2023-04-07T11:40:52;100132.69;;;11.37;31.64
75045;BME280;63614;56.026;35.960;2023-04-07T11:43:22;100142.34;;;11.52;32.35
75045;BME280;63614;56.026;35.960;2023-04-07T11:46:09;100145.78;;;11.52;33.30
75045;BME280;63614;56.026;35.960;2023-04-07T11:48:37;100140.97;;;11.41;33.09
75045;BME280;63614;56.026;35.960;2023-04-07T11:51:05;100146.97;;;11.41;32.77
75045;BME280;63614;56.026;35.960;2023-04-07T11:53:35;100132.75;;;11.52;31.98
75045;BME280;63614;56.026;35.960;2023-04-07T11:56:05;100154.28;;;11.46;32.49
75045;BME280;63614;56.026;35.960;2023-04-07T11:58:32;100146.31;;;11.62;32.43
75045;BME280;63614;56.026;35.960;2023-04-07T12:00:59;100144.66;;;11.70;31.71
75045;BME280;63614;56.026;35.960;2023-04-07T12:03:30;100139.63;;;11.68;31.29
75045;BME280;63614;56.026;35.960;2023-04-07T12:05:55;100144.91;;;11.60;31.22
75045;BME280;63614;56.026;35.960;2023-04-07T12:08:35;100141.13;;;11.62;31.29
75045;BME280;63614;56.026;35.960;2023-04-07T12:11:03;100136.66;;;11.71;31.47
75045;BME280;63614;56.026;35.960;2023-04-07T12:13:29;100129.28;;;11.75;31.80
75045;BME280;63614;56.026;35.960;2023-04-07T12:15:57;100133.44;;;11.84;31.93
75045;BME280;63614;56.026;35.960;2023-04-07T12:18:23;100135.53;;;11.89;30.81
75045;BME280;63614;56.026;35.960;2023-04-07T12:20:50;100141.09;;;11.86;31.63
75045;BME280;63614;56.026;35.960;2023-04-07T12:23:15;100137.13;;;11.90;31.63
75045;BME280;63614;56.026;35.960;2023-04-07T12:25:41;100136.50;;;11.88;31.36
75045;BME280;63614;56.026;35.960;2023-04-07T12:28:07;100140.34;;;11.77;31.81
75045;BME280;63614;56.026;35.960;2023-04-07T12:30:32;100142.91;;;11.62;32.11
75045;BME280;63614;56.026;35.960;2023-04-07T12:32:58;100152.06;;;11.58;31.66
75045;BME280;63614;56.026;35.960;2023-04-07T12:35:24;100139.09;;;11.50;32.12
75045;BME280;63614;56.026;35.960;2023-04-07T12:37:50;100131.50;;;11.63;31.68
75045;BME280;63614;56.026;35.960;2023-04-07T12:40:17;100137.63;;;11.70;32.00
75045;BME280;63614;56.026;35.960;2023-04-07T12:42:43;100131.97;;;11.67;31.55
75045;BME280;63614;56.026;35.960;2023-04-07T12:45:09;100125.28;;;11.49;31.80
75045;BME280;63614;56.026;35.960;2023-04-07T12:47:34;100141.41;;;11.68;31.56
75045;BME280;63614;56.026;35.960;2023-04-07T12:50:00;100134.75;;;11.65;32.10
75045;BME280;63614;56.026;35.960;2023-04-07T12:52:26;100124.88;;;11.75;31.93
75045;BME280;63614;56.026;35.960;2023-04-07T12:54:52;100131.56;;;11.55;31.26
75045;BME280;63614;56.026;35.960;2023-04-07T12:57:18;100118.63;;;11.23;30.91
75045;BME280;63614;56.026;35.960;2023-04-07T12:59:44;100135.94;;;11.39;32.00
75045;BME280;63614;56.026;35.960;2023-04-07T13:02:09;100131.88;;;11.37;31.69
75045;BME280;63614;56.026;35.960;2023-04-07T13:04:38;100139.41;;;11.32;30.86
75045;BME280;63614;56.026;35.960;2023-04-07T13:07:07;100131.66;;;11.23;31.54
75045;BME280;63614;56.026;35.960;2023-04-07T13:09:34;100132.06;;;11.35;31.09
75045;BME280;63614;56.026;35.960;2023-04-07T13:11:59;100132.41;;;11.32;31.14